createdAt,value
2023-03-10T05:17:55.099Z,89.15
2023-03-10T05:19:00.959Z,89.42
2023-03-10T05:20:11.370Z,89.14
2023-03-10T05:21:26.690Z,89.08
2023-03-10T05:22:36.890Z,89.89
2023-03-10T05:26:43.022Z,90.05
2023-03-10T05:27:53.024Z,89.78
2023-03-10T05:29:09.418Z,91.33
2023-03-10T05:30:23.247Z,91.29
2023-03-10T05:31:57.235Z,90.83
2023-03-10T05:33:15.636Z,88.92
2023-03-10T05:34:30.946Z,91.03
2023-03-10T06:27:29.334Z,82.19
2023-03-10T06:30:12.468Z,79.88
2023-03-10T06:31:45.124Z,75.76
2023-03-10T07:23:25.716Z,82.34
2023-03-10T07:24:34.506Z,82.47
2023-03-10T07:25:42.707Z,81.52
2023-03-10T07:26:47.210Z,81.19
2023-03-10T07:28:05.125Z,82.35
2023-03-10T07:29:12.967Z,80.17
2023-03-10T07:31:50.926Z,77.49
2023-03-10T07:32:58.350Z,67.11
2023-03-10T07:34:06.098Z,61.61
2023-03-10T07:35:09.661Z,60.72
2023-03-10T07:36:17.550Z,60.69
2023-03-10T07:37:27.710Z,55.94
2023-03-10T07:38:33.738Z,54.34
2023-03-10T07:39:40.344Z,52.58
2023-03-10T07:40:47.798Z,49.63
2023-03-10T07:41:52.223Z,47.52
2023-03-10T07:42:59.654Z,45.99
2023-03-10T07:44:11.044Z,44.77
2023-03-10T07:46:34.552Z,48.30
2023-03-10T07:47:40.611Z,48.13
2023-03-10T07:48:48.471Z,49.16
2023-03-10T07:49:55.534Z,50.93
2023-03-10T07:51:06.657Z,51.94
2023-03-10T07:52:11.017Z,53.31
2023-03-10T07:53:17.923Z,53.37
2023-03-10T07:54:22.981Z,54.05
2023-03-10T07:56:55.260Z,56.22
2023-03-10T07:58:04.900Z,57.69
2023-03-10T08:00:35.364Z,57.03
2023-03-10T08:01:40.343Z,57.45
2023-03-10T08:02:44.794Z,55.54
2023-03-10T08:03:51.494Z,57.96
2023-03-10T08:04:55.417Z,56.71
2023-03-10T08:06:12.122Z,57.58
2023-03-10T08:07:16.373Z,57.55
2023-03-10T08:08:22.945Z,58.48
2023-03-10T08:09:29.390Z,59.79
2023-03-10T08:10:36.149Z,59.40
2023-03-10T08:11:39.570Z,60.02
2023-03-10T08:12:44.321Z,59.69
2023-03-10T08:13:48.872Z,58.61
2023-03-10T08:15:00.044Z,59.32
2023-03-10T08:16:07.672Z,60.80
2023-03-10T08:17:20.081Z,59.47
2023-03-10T08:18:28.682Z,60.35
2023-03-10T08:19:37.897Z,59.94
2023-03-10T08:20:42.966Z,60.06
2023-03-10T08:21:48.548Z,59.97
2023-03-10T08:22:57.872Z,59.30
2023-03-10T08:24:04.472Z,58.84
2023-03-10T08:25:13.119Z,58.30
2023-03-10T08:26:29.875Z,58.44
2023-03-10T08:27:40.094Z,57.01
2023-03-10T08:28:46.502Z,57.77
2023-03-10T08:29:50.383Z,55.55
2023-03-10T08:31:04.130Z,52.54
2023-03-10T08:32:11.509Z,50.58
2023-03-10T08:33:18.748Z,51.79
2023-03-10T08:34:32.321Z,50.29
2023-03-10T08:35:40.548Z,50.06
2023-03-10T08:36:45.314Z,51.64
2023-03-10T08:37:48.395Z,51.18
2023-03-10T08:38:56.096Z,50.82
2023-03-10T08:40:02.729Z,49.05
2023-03-10T08:41:23.724Z,49.32
2023-03-10T08:42:28.146Z,49.85
2023-03-10T08:43:39.305Z,50.40
2023-03-10T08:44:46.519Z,50.53
2023-03-10T08:45:50.643Z,51.32
2023-03-10T08:46:56.332Z,53.22
2023-03-10T08:47:59.126Z,53.42
2023-03-10T08:49:05.733Z,52.91
2023-03-10T08:50:08.949Z,55.37
2023-03-10T08:51:17.534Z,56.32
2023-03-10T08:52:21.590Z,58.20
2023-03-10T08:53:27.206Z,56.33
2023-03-10T08:54:40.651Z,57.23
2023-03-10T08:55:43.218Z,58.77
2023-03-10T08:56:54.431Z,58.40
2023-03-10T08:58:00.361Z,58.60
2023-03-10T08:59:07.774Z,58.24
2023-03-10T09:00:17.276Z,58.75
2023-03-10T09:01:25.094Z,58.75
2023-03-10T09:02:30.042Z,60.11
2023-03-10T09:03:38.753Z,59.40
2023-03-10T09:04:42.755Z,57.98
2023-03-10T09:05:46.115Z,57.88
2023-03-10T09:06:53.443Z,57.35
2023-03-10T09:07:58.391Z,57.04
2023-03-10T09:09:01.815Z,57.85
2023-03-10T09:11:43.969Z,58.72
2023-03-10T09:13:03.953Z,58.21
2023-03-10T09:14:18.955Z,58.55
2023-03-10T09:15:24.692Z,59.48
2023-03-10T09:16:31.141Z,61.35
2023-03-10T09:17:41.011Z,61.03
2023-03-10T09:18:46.136Z,60.55
2023-03-10T09:19:50.570Z,61.70
2023-03-10T09:20:53.768Z,62.13
2023-03-10T09:21:57.933Z,63.25
2023-03-10T09:23:06.844Z,62.61
2023-03-10T09:24:09.858Z,64.88
2023-03-10T09:25:13.488Z,63.01
2023-03-10T09:26:22.664Z,64.44
2023-03-10T09:27:26.575Z,65.30
2023-03-10T09:28:29.096Z,64.10
2023-03-10T09:29:43.111Z,64.39
2023-03-10T09:30:48.903Z,64.70
2023-03-10T09:31:51.477Z,64.49
2023-03-10T09:33:08.450Z,64.34
2023-03-10T09:34:20.512Z,65.23
2023-03-10T09:35:27.072Z,64.45
2023-03-10T09:36:30.212Z,64.44
2023-03-10T09:37:34.597Z,64.78
2023-03-10T09:38:39.389Z,65.20
2023-03-10T09:39:45.039Z,64.39
2023-03-10T09:41:06.726Z,62.91
2023-03-10T09:42:38.914Z,63.03
2023-03-10T09:43:50.853Z,62.36
2023-03-10T09:45:20.803Z,60.85
2023-03-10T09:46:40.545Z,60.04
2023-03-10T09:48:05.756Z,62.78
2023-03-10T09:49:51.777Z,63.65
2023-03-10T09:50:57.120Z,64.24
2023-03-10T09:52:25.099Z,64.66
2023-03-10T09:53:54.448Z,66.66
2023-03-10T09:55:07.936Z,64.25
2023-03-10T09:56:16.181Z,65.41
2023-03-10T09:57:24.652Z,64.89
2023-03-10T09:58:30.554Z,65.41
2023-03-10T09:59:38.027Z,64.13
2023-03-10T10:00:45.501Z,65.27
2023-03-10T10:01:52.609Z,65.93
2023-03-10T10:03:12.817Z,65.10
2023-03-10T10:04:39.752Z,63.46
2023-03-10T10:05:51.230Z,66.05
2023-03-10T10:06:57.676Z,66.13
2023-03-10T10:08:06.237Z,65.68
2023-03-10T10:09:33.040Z,64.78
2023-03-10T10:10:39.306Z,66.77
2023-03-10T10:11:44.523Z,65.89
2023-03-10T10:12:55.708Z,67.44
2023-03-10T10:14:29.221Z,66.21
2023-03-10T10:15:40.019Z,67.50
2023-03-10T10:17:07.573Z,67.04
2023-03-10T10:18:56.416Z,65.33
2023-03-10T10:19:59.867Z,65.01
2023-03-10T10:21:13.805Z,66.65
2023-03-10T10:22:47.522Z,66.13
2023-03-10T10:24:06.772Z,67.59
2023-03-10T10:25:15.773Z,66.51
2023-03-10T10:26:25.116Z,65.63
2023-03-10T10:27:32.256Z,65.59
2023-03-10T10:28:50.946Z,67.01
2023-03-10T10:29:58.806Z,65.75
2023-03-10T10:31:14.424Z,65.16
2023-03-10T10:32:19.945Z,65.15
2023-03-10T10:33:22.992Z,65.35
2023-03-10T10:34:28.847Z,66.06
2023-03-10T10:35:42.235Z,66.70
2023-03-10T10:36:58.700Z,68.10
2023-03-10T10:38:04.358Z,66.16
2023-03-10T10:39:33.492Z,66.42
2023-03-10T10:41:19.096Z,66.61
2023-03-10T10:42:28.731Z,66.66
2023-03-10T10:43:41.877Z,64.73
2023-03-10T10:44:47.211Z,66.25
2023-03-10T10:47:30.833Z,68.58
2023-03-10T10:48:46.743Z,68.16
2023-03-10T10:49:50.068Z,67.33
2023-03-10T10:50:55.979Z,68.98
2023-03-10T10:52:19.061Z,68.47
2023-03-10T10:53:27.035Z,67.28
2023-03-10T10:54:41.802Z,66.84
2023-03-10T10:55:46.463Z,66.74
2023-03-10T10:56:59.584Z,66.32
2023-03-10T10:58:06.907Z,68.21
2023-03-10T10:59:25.735Z,67.59
2023-03-10T11:00:32.752Z,68.35
2023-03-10T11:01:59.618Z,69.67
2023-03-10T11:03:20.924Z,68.19
2023-03-10T11:04:26.233Z,67.55
2023-03-10T11:05:39.087Z,66.31
2023-03-10T11:06:44.986Z,67.52
2023-03-10T11:07:47.892Z,67.96
2023-03-10T11:08:53.147Z,68.56
2023-03-10T11:10:00.562Z,68.91
2023-03-10T11:11:06.667Z,67.16
2023-03-10T11:12:34.925Z,66.96
2023-03-10T11:13:56.307Z,68.10
2023-03-10T11:15:30.365Z,67.36
2023-03-10T11:17:30.396Z,67.30
2023-03-10T11:18:43.815Z,66.77
2023-03-10T11:19:56.264Z,66.47
2023-03-10T11:21:08.412Z,68.79
2023-03-10T11:22:33.714Z,66.32
2023-03-10T11:24:00.150Z,65.07
2023-03-10T11:25:11.217Z,65.43
2023-03-10T11:26:33.294Z,63.77
2023-03-10T11:27:49.329Z,65.39
2023-03-10T11:29:30.066Z,66.15
2023-03-10T11:30:47.220Z,65.80
2023-03-10T11:32:19.377Z,67.25
2023-03-10T11:33:37.961Z,65.85
2023-03-10T11:34:51.234Z,66.08
2023-03-10T11:36:28.396Z,67.57
2023-03-10T11:37:43.770Z,66.24
2023-03-10T11:38:51.896Z,66.71
2023-03-10T11:40:08.022Z,66.59
2023-03-10T11:41:44.537Z,68.87
2023-03-10T11:43:07.086Z,68.92
2023-03-10T11:44:38.937Z,67.55
2023-03-10T11:45:55.394Z,66.97
2023-03-10T11:47:23.949Z,67.33
2023-03-10T11:48:44.535Z,67.33
2023-03-10T11:51:45.023Z,67.30
2023-03-10T11:52:59.391Z,67.67
2023-03-10T11:54:20.292Z,67.11
2023-03-10T11:55:23.074Z,67.70
2023-03-10T11:56:28.269Z,68.08
2023-03-10T11:57:44.056Z,68.44
2023-03-10T11:59:00.479Z,67.49
2023-03-10T12:00:15.689Z,67.65
2023-03-10T12:01:33.236Z,68.90
2023-03-10T12:03:13.782Z,71.48
2023-03-10T12:04:25.705Z,72.04
2023-03-10T12:05:43.115Z,73.06
2023-03-10T12:06:58.820Z,73.71
2023-03-10T12:08:37.720Z,71.93
2023-03-10T12:10:12.377Z,71.69
2023-03-10T12:12:04.578Z,70.87
2023-03-10T12:13:50.690Z,71.96
2023-03-10T12:14:57.393Z,71.23
2023-03-10T12:16:01.484Z,71.73
2023-03-10T12:20:15.124Z,70.74
2023-03-10T12:21:21.655Z,71.03
2023-03-10T12:24:48.449Z,70.51
2023-03-10T12:25:54.400Z,70.92
2023-03-10T12:27:05.668Z,69.90
2023-03-10T12:28:24.793Z,69.14
2023-03-10T12:29:35.658Z,68.08
2023-03-10T12:31:10.768Z,69.12
2023-03-10T12:32:42.205Z,70.72
2023-03-10T12:33:47.972Z,69.28
2023-03-10T12:35:33.125Z,69.16
2023-03-10T12:36:50.196Z,68.81
2023-03-10T12:38:43.558Z,66.82
2023-03-10T12:39:53.763Z,67.56
2023-03-10T12:41:43.482Z,66.21
2023-03-10T12:42:47.131Z,67.78
2023-03-10T12:43:49.034Z,68.16
2023-03-10T12:45:01.403Z,67.83
2023-03-10T12:46:16.290Z,68.01
2023-03-10T12:47:22.991Z,67.14
2023-03-10T12:48:26.736Z,66.12
2023-03-10T12:49:32.241Z,64.96
2023-03-10T12:50:53.658Z,64.87
2023-03-10T12:52:07.843Z,65.20
2023-03-10T12:53:34.728Z,67.75
2023-03-10T12:54:56.909Z,64.46
2023-03-10T12:56:13.993Z,63.89
2023-03-10T12:57:36.961Z,63.71
2023-03-10T12:58:43.488Z,61.52
2023-03-10T13:00:19.295Z,61.40
2023-03-10T13:01:25.771Z,61.03
2023-03-10T13:02:48.954Z,61.27
2023-03-10T13:03:56.612Z,60.78
2023-03-10T13:05:06.582Z,61.24
2023-03-10T13:06:14.458Z,60.29
2023-03-10T13:07:19.549Z,61.08
2023-03-10T13:08:44.385Z,61.32
2023-03-10T13:09:49.099Z,62.10
2023-03-10T13:10:56.787Z,62.73
2023-03-10T13:12:07.551Z,61.25
2023-03-10T13:13:16.810Z,60.55
2023-03-10T13:14:24.725Z,61.97
2023-03-10T13:15:31.454Z,59.58
2023-03-10T13:16:33.831Z,60.43
2023-03-10T13:17:36.043Z,61.35
2023-03-10T13:18:46.604Z,61.77
2023-03-10T13:20:05.815Z,59.73
2023-03-10T13:21:24.921Z,60.23
2023-03-10T13:22:27.773Z,60.12
2023-03-10T13:23:35.542Z,61.36
2023-03-10T13:24:41.782Z,59.65
2023-03-10T13:26:00.678Z,59.20
2023-03-10T13:27:08.969Z,58.96
2023-03-10T13:28:12.424Z,59.21
2023-03-10T13:29:20.624Z,57.76
2023-03-10T13:30:26.752Z,58.75
2023-03-10T13:31:33.814Z,58.47
2023-03-10T13:32:37.402Z,58.85
2023-03-10T13:33:52.366Z,59.13
2023-03-10T13:34:57.477Z,59.24
2023-03-10T13:35:59.781Z,59.10
2023-03-10T13:37:07.635Z,58.77
2023-03-10T13:38:17.866Z,57.15
2023-03-10T13:39:27.395Z,57.52
2023-03-10T13:40:37.040Z,58.02
2023-03-10T13:41:46.140Z,59.13
2023-03-10T13:42:48.347Z,58.02
2023-03-10T13:43:54.959Z,58.69
2023-03-10T13:44:57.046Z,58.41
2023-03-10T13:46:01.085Z,59.13
2023-03-10T13:47:12.788Z,59.26
2023-03-10T13:48:14.722Z,60.12
2023-03-10T13:49:18.316Z,59.72
2023-03-10T13:50:20.504Z,59.31
2023-03-10T13:51:25.071Z,59.57
2023-03-10T13:52:30.332Z,58.41
2023-03-10T13:53:34.856Z,58.17
2023-03-10T13:54:41.212Z,58.40
2023-03-10T13:55:43.177Z,59.64
2023-03-10T13:56:46.415Z,60.65
2023-03-10T13:57:49.280Z,59.29
2023-03-10T13:58:55.738Z,58.93
2023-03-10T13:59:59.691Z,60.31
2023-03-10T14:01:01.732Z,60.85
2023-03-10T14:02:05.351Z,58.83
2023-03-10T14:03:08.489Z,59.67
2023-03-10T14:04:16.782Z,58.91
2023-03-10T14:05:54.562Z,58.66
2023-03-10T14:07:18.613Z,59.98
2023-03-10T14:08:28.406Z,60.13
2023-03-10T14:09:31.005Z,59.24
2023-03-10T14:10:33.574Z,59.43
2023-03-10T14:11:44.764Z,57.85
2023-03-10T14:12:52.266Z,59.12
2023-03-10T14:13:54.440Z,59.83
2023-03-10T14:15:21.329Z,58.67
2023-03-10T14:16:57.084Z,59.20
2023-03-10T14:18:07.904Z,59.61
2023-03-10T14:19:10.724Z,59.39
2023-03-10T14:20:33.148Z,58.90
2023-03-10T14:21:58.434Z,60.40
2023-03-10T14:23:41.572Z,60.68
2023-03-10T14:24:44.878Z,61.27
2023-03-10T14:25:49.311Z,60.10
2023-03-10T14:26:51.718Z,60.17
2023-03-10T14:27:57.904Z,60.55
2023-03-10T14:29:12.932Z,59.01
2023-03-10T14:30:30.288Z,60.40
2023-03-10T14:31:32.732Z,60.06
2023-03-10T14:32:35.006Z,59.82
2023-03-10T14:33:37.242Z,60.63
2023-03-10T14:34:39.106Z,61.10
2023-03-10T14:35:41.882Z,61.11
2023-03-10T14:36:43.853Z,61.11
2023-03-10T14:37:46.839Z,61.22
2023-03-10T14:38:57.792Z,60.44
2023-03-10T14:39:59.859Z,60.95
2023-03-10T14:41:05.782Z,60.78
2023-03-10T14:42:19.807Z,61.13
2023-03-10T14:43:25.580Z,62.65
2023-03-10T14:44:28.608Z,62.82
2023-03-10T14:45:33.965Z,63.18
2023-03-10T14:46:36.177Z,64.75
2023-03-10T14:47:38.486Z,65.00
2023-03-10T14:48:42.132Z,64.17
2023-03-10T14:49:50.486Z,64.67
2023-03-10T14:50:54.679Z,63.97
2023-03-10T14:51:58.261Z,62.94
2023-03-10T14:53:02.971Z,62.29
2023-03-10T14:54:19.403Z,63.12
2023-03-10T14:55:25.009Z,62.70
2023-03-10T14:56:28.120Z,62.14
2023-03-10T14:57:30.534Z,61.69
2023-03-10T14:58:40.002Z,60.87
2023-03-10T14:59:42.057Z,60.39
2023-03-10T15:00:44.250Z,60.54
2023-03-10T15:01:46.288Z,60.71
2023-03-10T15:02:48.872Z,61.05
2023-03-10T15:03:50.985Z,61.57
2023-03-10T15:04:53.053Z,62.16
2023-03-10T15:05:55.123Z,60.94
2023-03-10T15:06:56.997Z,60.44
2023-03-10T15:07:58.873Z,60.50
2023-03-10T15:09:03.870Z,61.71
2023-03-10T15:10:14.407Z,63.43
2023-03-10T15:11:35.689Z,63.28
2023-03-10T15:12:40.872Z,62.74
2023-03-10T15:13:43.001Z,63.37
2023-03-10T15:14:52.449Z,62.91
2023-03-10T15:15:54.570Z,63.61
2023-03-10T15:16:56.644Z,64.18
2023-03-10T15:17:59.799Z,63.37
2023-03-10T15:19:01.665Z,62.83
2023-03-10T15:20:08.421Z,63.39
2023-03-10T15:21:10.580Z,63.80
2023-03-10T15:22:15.393Z,63.30
2023-03-10T15:23:24.880Z,63.26
2023-03-10T15:24:26.878Z,64.35
2023-03-10T15:25:29.029Z,65.05
2023-03-10T15:26:31.884Z,63.81
2023-03-10T15:27:33.898Z,62.36
2023-03-10T15:28:37.377Z,61.67
2023-03-10T15:29:39.493Z,61.63
2023-03-10T15:30:41.757Z,61.31
2023-03-10T15:31:43.963Z,61.92
2023-03-10T15:32:48.836Z,62.13
2023-03-10T15:33:50.810Z,62.33
2023-03-10T15:34:52.800Z,62.94
2023-03-10T15:35:55.205Z,62.89
2023-03-10T15:36:57.115Z,62.40
2023-03-10T15:37:59.342Z,62.60
2023-03-10T15:39:01.512Z,62.29
2023-03-10T15:40:04.457Z,61.92
2023-03-10T15:41:06.315Z,61.80
2023-03-10T15:42:08.382Z,62.03
2023-03-10T15:43:10.730Z,61.95
2023-03-10T15:44:12.630Z,61.83
2023-03-10T15:45:15.509Z,61.71
2023-03-10T15:46:17.934Z,61.99
2023-03-10T15:47:20.740Z,61.81
2023-03-10T15:48:22.702Z,62.29
2023-03-10T15:49:24.680Z,62.09
2023-03-10T15:50:27.958Z,61.88
2023-03-10T15:51:30.348Z,61.55
2023-03-10T15:52:32.337Z,61.60
2023-03-10T15:53:34.222Z,61.92
2023-03-10T15:54:36.151Z,62.29
2023-03-10T15:55:41.617Z,61.18
2023-03-10T15:56:43.570Z,61.38
2023-03-10T15:57:48.466Z,61.33
2023-03-10T15:58:50.515Z,61.65
2023-03-10T15:59:53.593Z,62.47
2023-03-10T16:00:55.586Z,62.40
2023-03-10T16:02:00.182Z,62.44
2023-03-10T16:03:02.377Z,62.80
2023-03-10T16:04:06.119Z,63.21
2023-03-10T16:05:08.707Z,61.97
2023-03-10T16:06:12.719Z,61.58
2023-03-10T16:07:15.644Z,61.75
2023-03-10T16:08:19.433Z,62.71
2023-03-10T16:09:21.537Z,62.98
2023-03-10T16:10:23.416Z,62.90
2023-03-10T16:11:26.172Z,62.23
2023-03-10T16:12:28.646Z,61.86
2023-03-10T16:13:31.268Z,61.31
2023-03-10T16:14:33.362Z,60.99
2023-03-10T16:15:38.395Z,61.37
2023-03-10T16:16:40.391Z,61.14
2023-03-10T16:17:43.886Z,60.56
2023-03-10T16:18:47.136Z,60.91
2023-03-10T16:19:49.164Z,61.26
2023-03-10T16:20:58.838Z,61.94
2023-03-10T16:22:00.851Z,62.06
2023-03-10T16:23:02.775Z,61.64
2023-03-10T16:24:04.840Z,60.53
2023-03-10T16:25:09.132Z,60.46
2023-03-10T16:26:17.241Z,60.65
2023-03-10T16:27:19.149Z,60.00
2023-03-10T16:28:21.056Z,60.73
2023-03-10T16:29:25.809Z,60.94
2023-03-10T16:30:29.259Z,61.21
2023-03-10T16:31:31.496Z,60.61
2023-03-10T16:32:34.110Z,60.09
2023-03-10T16:33:36.185Z,60.49
2023-03-10T16:34:38.164Z,61.20
2023-03-10T16:35:40.139Z,60.55
2023-03-10T16:36:42.255Z,60.61
2023-03-10T16:37:44.548Z,60.56
2023-03-10T16:38:46.972Z,61.32
2023-03-10T16:39:48.846Z,61.28
2023-03-10T16:40:51.595Z,60.98
2023-03-10T16:41:53.531Z,61.96
2023-03-10T16:42:55.466Z,61.76
2023-03-10T16:43:57.404Z,61.41
2023-03-10T16:44:59.605Z,61.14
2023-03-10T16:46:12.785Z,60.89
2023-03-10T16:47:17.836Z,60.71
2023-03-10T16:48:20.853Z,60.80
2023-03-10T16:49:22.752Z,61.48
2023-03-10T16:50:24.598Z,61.41
2023-03-10T16:51:39.010Z,61.82
2023-03-10T16:52:42.898Z,61.54
2023-03-10T16:53:45.406Z,61.81
2023-03-10T16:54:47.534Z,61.70
2023-03-10T16:55:49.558Z,60.68
2023-03-10T16:56:53.494Z,60.24
2023-03-10T16:57:56.754Z,60.82
2023-03-10T16:58:58.965Z,60.64
2023-03-10T17:00:00.916Z,61.88
2023-03-10T17:01:02.817Z,61.35
2023-03-10T17:02:05.106Z,61.50
2023-03-10T17:03:07.059Z,61.93
2023-03-10T17:04:08.944Z,61.66
2023-03-10T17:05:10.913Z,61.27
2023-03-10T17:06:16.861Z,61.27
2023-03-10T17:07:19.441Z,60.78
2023-03-10T17:08:22.302Z,61.45
2023-03-10T17:09:24.228Z,61.91
2023-03-10T17:10:27.012Z,62.03
2023-03-10T17:11:31.782Z,61.82
2023-03-10T17:12:34.656Z,61.69
2023-03-10T17:13:38.003Z,61.98
2023-03-10T17:14:40.102Z,61.75
2023-03-10T17:15:41.914Z,61.43
2023-03-10T17:16:45.360Z,61.38
2023-03-10T17:17:47.398Z,62.71
2023-03-10T17:18:50.827Z,62.99
2023-03-10T17:19:52.843Z,62.96
2023-03-10T17:20:54.825Z,62.99
2023-03-10T17:21:58.554Z,63.13
2023-03-10T17:23:00.596Z,62.50
2023-03-10T17:24:03.680Z,63.15
2023-03-10T17:25:06.210Z,63.16
2023-03-10T17:26:09.971Z,63.17
2023-03-10T17:27:11.896Z,62.87
2023-03-10T17:28:14.062Z,62.93
2023-03-10T17:29:16.900Z,63.43
2023-03-10T17:30:20.100Z,63.87
2023-03-10T17:31:28.621Z,64.48
2023-03-10T17:32:30.935Z,64.10
2023-03-10T17:33:32.912Z,63.13
2023-03-10T17:34:34.766Z,63.58
2023-03-10T17:35:38.789Z,63.32
2023-03-10T17:36:43.211Z,63.48
2023-03-10T17:37:47.037Z,63.77
2023-03-10T17:38:52.775Z,64.53
2023-03-10T17:39:54.652Z,64.33
2023-03-10T17:40:56.619Z,64.16
2023-03-10T17:41:58.644Z,64.26
2023-03-10T17:43:13.168Z,64.42
2023-03-10T17:44:23.290Z,64.51
2023-03-10T17:45:25.472Z,64.61
2023-03-10T17:46:29.860Z,63.56
2023-03-10T17:47:32.046Z,64.15
2023-03-10T17:48:34.740Z,64.29
2023-03-10T17:49:36.623Z,64.37
2023-03-10T17:50:38.839Z,65.19
2023-03-10T17:51:43.755Z,65.21
2023-03-10T17:52:47.697Z,64.41
2023-03-10T17:53:49.672Z,63.88
2023-03-10T17:54:51.796Z,63.77
2023-03-10T17:55:54.298Z,64.03
2023-03-10T17:56:56.248Z,64.08
2023-03-10T17:57:58.099Z,64.60
2023-03-10T17:59:00.058Z,64.78
2023-03-10T18:00:02.024Z,64.55
2023-03-10T18:01:17.316Z,63.90
2023-03-10T18:02:19.444Z,64.09
2023-03-10T18:03:22.289Z,64.09
2023-03-10T18:04:24.166Z,63.75
2023-03-10T18:05:26.168Z,63.68
2023-03-10T18:06:31.394Z,63.82
2023-03-10T18:07:33.961Z,64.08
2023-03-10T18:08:35.948Z,63.94
2023-03-10T18:09:38.883Z,63.68
2023-03-10T18:10:42.291Z,63.86
2023-03-10T18:11:45.826Z,64.77
2023-03-10T18:12:47.911Z,65.30
2023-03-10T18:13:49.908Z,65.79
2023-03-10T18:14:52.325Z,65.68
2023-03-10T18:15:54.332Z,65.01
2023-03-10T18:16:57.627Z,64.42
2023-03-10T18:18:01.229Z,64.38
2023-03-10T18:19:05.044Z,64.47
2023-03-10T18:20:10.335Z,64.82
2023-03-10T18:21:13.622Z,65.44
2023-03-10T18:22:15.459Z,65.71
2023-03-10T18:23:20.648Z,65.73
2023-03-10T18:24:22.628Z,66.19
2023-03-10T18:25:24.449Z,66.42
2023-03-10T18:26:30.560Z,66.53
2023-03-10T18:27:33.007Z,66.35
2023-03-10T18:28:35.675Z,66.33
2023-03-10T18:29:37.584Z,66.36
2023-03-10T18:30:44.807Z,66.03
2023-03-10T18:31:46.955Z,66.08
2023-03-10T18:32:49.223Z,66.79
2023-03-10T18:33:51.729Z,67.53
2023-03-10T18:34:54.531Z,67.79
2023-03-10T18:35:57.486Z,67.40
2023-03-10T18:37:00.222Z,67.28
2023-03-10T18:38:02.117Z,67.87
2023-03-10T18:39:07.397Z,67.08
2023-03-10T18:40:14.686Z,66.84
2023-03-10T18:41:24.305Z,66.86
2023-03-10T18:42:27.751Z,67.44
2023-03-10T18:43:32.238Z,68.00
2023-03-10T18:44:34.142Z,68.54
2023-03-10T18:45:39.442Z,68.81
2023-03-10T18:46:41.460Z,68.79
2023-03-10T18:47:45.804Z,68.80
2023-03-10T18:48:55.504Z,68.54
2023-03-10T18:49:58.756Z,68.19
2023-03-10T18:51:00.839Z,67.89
2023-03-10T18:52:02.876Z,68.46
2023-03-10T18:53:04.791Z,67.50
2023-03-10T18:54:07.071Z,67.57
2023-03-10T18:55:11.639Z,67.71
2023-03-10T18:56:14.086Z,67.47
2023-03-10T18:57:16.440Z,67.84
2023-03-10T18:58:18.835Z,68.07
2023-03-10T18:59:20.722Z,67.31
2023-03-10T19:00:23.275Z,66.71
2023-03-10T19:01:26.923Z,66.36
2023-03-10T19:02:29.181Z,66.21
2023-03-10T19:03:31.534Z,66.55
2023-03-10T19:04:33.403Z,66.27
2023-03-10T19:05:35.307Z,65.97
2023-03-10T19:06:37.232Z,65.81
2023-03-10T19:07:39.389Z,65.74
2023-03-10T19:08:42.737Z,65.22
2023-03-10T19:09:44.631Z,65.31
2023-03-10T19:10:54.597Z,65.85
2023-03-10T19:11:56.476Z,66.28
2023-03-10T19:12:58.584Z,66.49
2023-03-10T19:14:00.379Z,66.63
2023-03-10T19:15:09.102Z,65.95
2023-03-10T19:16:11.773Z,65.70
2023-03-10T19:17:13.838Z,65.55
2023-03-10T19:18:16.925Z,65.35
2023-03-10T19:19:19.192Z,64.91
2023-03-10T19:20:21.406Z,64.49
2023-03-10T19:21:24.320Z,64.80
2023-03-10T19:22:26.217Z,65.23
2023-03-10T19:23:29.274Z,64.35
2023-03-10T19:24:33.867Z,63.61
2023-03-10T19:25:35.906Z,64.43
2023-03-10T19:26:38.238Z,65.15
2023-03-10T19:27:40.839Z,64.53
2023-03-10T19:28:42.792Z,64.26
2023-03-10T19:29:44.890Z,65.55
2023-03-10T19:30:46.900Z,65.11
2023-03-10T19:31:48.993Z,64.86
2023-03-10T19:32:51.072Z,64.35
2023-03-10T19:33:53.083Z,64.17
2023-03-10T19:34:54.949Z,63.93
2023-03-10T19:36:04.301Z,63.23
2023-03-10T19:37:06.322Z,62.04
2023-03-10T19:38:08.408Z,62.42
2023-03-10T19:39:10.679Z,62.75
2023-03-10T19:40:17.064Z,63.63
2023-03-10T19:41:20.094Z,63.38
2023-03-10T19:42:23.129Z,63.68
2023-03-10T19:43:25.121Z,64.60
2023-03-10T19:44:27.620Z,64.05
2023-03-10T19:45:30.037Z,64.88
2023-03-10T19:46:32.026Z,64.60
2023-03-10T19:47:33.956Z,64.08
2023-03-10T19:48:36.139Z,64.19
2023-03-10T19:49:39.806Z,64.32
2023-03-10T19:50:41.673Z,64.18
2023-03-10T19:51:43.561Z,64.79
2023-03-10T19:52:47.479Z,64.81
2023-03-10T19:53:51.556Z,64.87
2023-03-10T19:54:54.011Z,65.34
2023-03-10T19:55:58.615Z,65.54
2023-03-10T19:57:00.633Z,65.66
2023-03-10T19:58:02.482Z,66.00
2023-03-10T19:59:07.407Z,66.43
2023-03-10T20:00:13.924Z,65.83
2023-03-10T20:01:19.928Z,66.41
2023-03-10T20:02:22.147Z,66.59
2023-03-10T20:03:27.522Z,65.42
2023-03-10T20:04:34.683Z,66.19
2023-03-10T20:05:37.657Z,66.38
2023-03-10T20:06:39.629Z,66.49
2023-03-10T20:07:43.012Z,66.14
2023-03-10T20:08:44.993Z,66.25
2023-03-10T20:09:48.212Z,65.92
2023-03-10T20:10:50.906Z,66.02
2023-03-10T20:11:55.292Z,65.67
2023-03-10T20:12:59.932Z,65.88
2023-03-10T20:14:01.882Z,65.88
2023-03-10T20:15:05.805Z,65.68
2023-03-10T20:16:09.091Z,65.77
2023-03-10T20:17:11.044Z,65.63
2023-03-10T20:18:12.956Z,65.23
2023-03-10T20:19:14.889Z,66.33
2023-03-10T20:20:20.192Z,66.50
2023-03-10T20:21:22.090Z,66.48
2023-03-10T20:22:24.497Z,66.69
2023-03-10T20:23:26.343Z,66.00
2023-03-10T20:24:29.082Z,66.34
2023-03-10T20:25:30.996Z,66.12
2023-03-10T20:26:33.106Z,65.77
2023-03-10T20:27:35.465Z,65.80
2023-03-10T20:28:39.801Z,65.45
2023-03-10T20:29:42.038Z,65.48
2023-03-10T20:30:45.014Z,64.64
2023-03-10T20:31:46.880Z,65.07
2023-03-10T20:32:49.234Z,65.31
2023-03-10T20:33:51.324Z,66.10
2023-03-10T20:34:53.383Z,66.24
2023-03-10T20:35:55.956Z,65.83
2023-03-10T20:36:58.150Z,65.15
2023-03-10T20:38:00.640Z,64.74
2023-03-10T20:39:02.594Z,65.22
2023-03-10T20:40:06.264Z,65.11
2023-03-10T20:41:08.213Z,65.05
2023-03-10T20:42:10.123Z,65.06
2023-03-10T20:43:12.272Z,65.40
2023-03-10T20:44:15.758Z,65.27
2023-03-10T20:45:18.255Z,65.78
2023-03-10T20:46:23.196Z,66.00
2023-03-10T20:47:25.188Z,66.01
2023-03-10T20:48:27.042Z,66.32
2023-03-10T20:49:29.530Z,66.43
2023-03-10T20:50:31.497Z,66.24
2023-03-10T20:51:33.439Z,66.35
2023-03-10T20:52:39.915Z,66.92
2023-03-10T20:53:41.883Z,66.60
2023-03-10T20:54:43.805Z,67.07
2023-03-10T20:55:45.724Z,67.08
2023-03-10T20:56:47.575Z,67.41
2023-03-10T20:57:51.338Z,67.79
2023-03-10T20:58:53.750Z,67.99
2023-03-10T20:59:56.071Z,68.54
2023-03-10T21:00:58.057Z,68.86
2023-03-10T21:02:00.044Z,69.29
2023-03-10T21:03:02.139Z,69.69
2023-03-10T21:04:04.382Z,70.04
2023-03-10T21:05:06.902Z,70.54
2023-03-10T21:06:08.785Z,70.42
2023-03-10T21:07:11.456Z,70.93
2023-03-10T21:08:13.895Z,71.62
2023-03-10T21:09:16.560Z,71.88
2023-03-10T21:10:19.128Z,72.00
2023-03-10T21:11:24.249Z,72.33
2023-03-10T21:12:26.343Z,71.98
2023-03-10T21:13:28.480Z,72.17
2023-03-10T21:14:30.505Z,72.38
2023-03-10T21:15:32.678Z,72.95
2023-03-10T21:16:39.458Z,72.91
2023-03-10T21:17:41.746Z,72.93
2023-03-10T21:18:43.761Z,72.59
2023-03-10T21:19:46.026Z,72.92
2023-03-10T21:20:47.964Z,73.02
2023-03-10T21:21:49.981Z,73.29
2023-03-10T21:22:52.318Z,73.57
2023-03-10T21:23:54.425Z,73.90
2023-03-10T21:24:56.610Z,73.71
2023-03-10T21:25:58.484Z,74.34
2023-03-10T21:27:01.226Z,73.99
2023-03-10T21:28:03.430Z,74.67
2023-03-10T21:29:06.246Z,75.73
2023-03-10T21:30:10.101Z,76.17
2023-03-10T21:31:13.279Z,76.29
2023-03-10T21:32:15.177Z,75.99
2023-03-10T21:33:17.133Z,76.74
2023-03-10T21:34:19.007Z,76.39
2023-03-10T21:35:20.942Z,76.11
2023-03-10T21:36:24.110Z,75.42
2023-03-10T21:37:26.108Z,75.18
2023-03-10T21:38:28.289Z,74.83
2023-03-10T21:39:30.285Z,75.46
2023-03-10T21:40:32.348Z,75.67
2023-03-10T21:41:34.743Z,75.04
2023-03-10T21:42:37.629Z,75.53
2023-03-10T21:43:39.478Z,75.11
2023-03-10T21:44:41.361Z,75.68
2023-03-10T21:45:43.324Z,75.34
2023-03-10T21:46:46.006Z,75.81
2023-03-10T21:47:48.264Z,75.98
2023-03-10T21:48:52.409Z,76.30